Aérodrome :
LOGIN :

S'inscrire | Disclaimer

   EN    FR    IT 

 










Légende :    VFR   VFR Marginal   IFR   IFR Intensif   IFR Très Intensif
Visi : 
Plafond : 
>= 8 km
>= 3000ft
5 à 8 km
1000 à 3000 ft
1500m à 5 km
500 à 1000 ft
800 à 1500m
200 à 500 ft
< 800m
< 200 ft
Symboles :   Orages  Brouillard  Fortes neiges  Fortes précipitations  Vent > 20 kt
SIGMETs :   Divers  Orages  Givrage  Turbulence  Onde Orograph.  Cendres Volcan.







- Altitude de l'aérodrome : 273 ft


EGXT - RAF Wittering Stamford

DERNIER METAR :
  • 221050Z 21015KT 9999 OVC015 10/07 Q1026 WHT

METARs EXPIRÉS :
  • 220950Z 22014KT 9999 OVC015 10/07 Q1026 WHT
  • 220850Z 22015KT 9999 OVC016 10/06 Q1027 WHT

TAF TAF EGXT
Valide du 22 à 12h jusqu'au 22 à 18h UTC


221024Z 2212/2218 21013KT 9999 OVC017
BECMG 2213/2215 BKN025
Pas de NOTAMs connus pour ce terrain.
1 SIGMET publié pour la FIR London (EGTT) :
 
Onde orographique forte
EGTT SIGMET 01 VALID 221100/221500 EGRR
EGTT LONDON FIR SEV MTW FCST WI N5345 W00044 - N5224 W00359 - N5318 W00402 - N5350 W00301 - N5500 W00331 - N5500 W00103 - N5345 W00044 FL030/150 STNR NC=



MET'MAP, la Météo Aéronautique d'un coup d'oeil ! - Copyright ORBIFLY Décembre 2007 - Disclaimer

ORBIFLY MET'MAP TEAM :

Programmation & Développement : Alexandra Zaïnal
Conception & Développement : Baudouin d'Aumeries
Co-Programmation & Développement : Marc-Olivier Méhu
Soutien technique & logistique : Manuel Goepfert

Contact : metmap@orbifly.com




SOURCES & CREDITS :

   NOAA